Time;durP1;ratioP1;P1;durP2;ratioP2;P2;SDS_P1;SDS_P2;PMS_P1;PMS_P2;Temp;Humidity;BMP_temperature;BMP_pressure;BME280_temperature;BME280_humidity;BME280_pressure;Samples;Min_cycle;Max_cycle;Signal;HPM_P1;HPM_P2
2023/05/05 00:00:54;;;;;;;;;2.00;2.00;;;;;-147.17;100.00;3206.00;5068991;28;51269;-68
2023/05/05 00:03:21;;;;;;;;;1.67;1.67;;;;;-147.17;100.00;2708.13;5070570;28;51176;-69
2023/05/05 00:05:51;;;;;;;;;2.00;2.00;;;;;-147.17;100.00;2459.22;5055568;28;51046;-69
2023/05/05 00:08:17;;;;;;;;;3.00;2.67;;;;;-147.17;100.00;2210.31;5064740;28;51398;-69
2023/05/05 00:10:47;;;;;;;;;1.67;1.67;;;;;-147.17;100.00;1712.56;5075381;28;51881;-69
2023/05/05 00:13:13;;;;;;;;;2.33;2.33;;;;;-147.17;100.00;1463.72;5072973;28;50966;-69
2023/05/05 00:15:41;;;;;;;;;3.67;2.33;;;;;-147.17;100.00;1214.91;5070750;27;51207;-69
2023/05/05 00:18:06;;;;;;;;;1.00;1.00;;;;;-147.17;100.00;966.09;5068192;28;51279;-69
2023/05/05 00:20:31;;;;;;;;;3.67;2.67;;;;;-147.17;100.00;717.28;5056729;28;54063;-69
2023/05/05 00:22:57;;;;;;;;;2.00;2.00;;;;;-147.17;100.00;468.50;5073659;28;51113;-69
2023/05/05 00:25:22;;;;;;;;;2.67;2.33;;;;;-147.17;100.00;468.50;5073907;28;51001;-69
2023/05/05 00:27:47;;;;;;;;;2.33;2.33;;;;;-147.17;100.00;219.72;5052276;28;51489;-69
2023/05/05 00:30:13;;;;;;;;;4.00;4.00;;;;;-147.17;100.00;-29.03;5066432;28;56098;-69
2023/05/05 00:32:38;;;;;;;;;2.00;2.00;;;;;-147.17;100.00;-775.19;5055000;28;51076;-69
2023/05/05 00:35:05;;;;;;;;;2.67;2.67;;;;;-147.17;100.00;-1023.88;5064544;28;51241;-69
2023/05/05 00:37:30;;;;;;;;;2.67;2.67;;;;;-147.17;100.00;-1521.19;5074469;28;51279;-69
2023/05/05 00:39:56;;;;;;;;;3.33;2.33;;;;;-147.17;100.00;-1769.84;5074879;28;50922;-69
2023/05/05 00:42:21;;;;;;;;;1.67;1.67;;;;;-147.17;100.00;-1769.84;5071260;28;51319;-69
2023/05/05 00:44:46;;;;;;;;;1.67;1.67;;;;;-147.17;100.00;-2018.47;5073342;28;50894;-68
2023/05/05 00:47:14;;;;;;;;;2.67;1.67;;;;;-147.17;100.00;-2764.22;5066615;28;51220;-69
2023/05/05 00:49:40;;;;;;;;;2.67;2.67;;;;;-147.17;100.00;-2764.22;5052870;28;51212;-69
2023/05/05 00:52:06;;;;;;;;;4.00;3.00;;;;;-147.17;100.00;-3509.84;5073398;28;51115;-69
2023/05/05 00:54:33;;;;;;;;;1.67;1.33;;;;;-147.17;100.00;-3509.84;5072569;28;51076;-69
2023/05/05 00:57:00;;;;;;;;;2.67;2.67;;;;;-147.17;100.00;-3758.38;5065561;28;51284;-69
2023/05/05 00:59:27;;;;;;;;;1.33;1.33;;;;;-147.17;100.00;-4006.88;5054651;28;51794;-69
2023/05/05 01:01:52;;;;;;;;;3.00;2.67;;;;;-147.17;100.00;-4503.81;5063598;28;50975;-68
2023/05/05 01:04:18;;;;;;;;;2.67;2.67;;;;;-147.17;100.00;-4752.25;5070299;28;51916;-69
2023/05/05 01:06:49;;;;;;;;;4.33;3.67;;;;;-147.17;100.00;-5249.09;5054034;28;50995;-69
2023/05/05 01:09:21;;;;;;;;;3.33;3.33;;;;;-147.17;100.00;-5249.09;5065332;28;51832;-69
2023/05/05 01:12:17;;;;;;;;;2.00;2.00;;;;;-147.17;100.00;-5745.88;5063017;28;51175;-69
2023/05/05 01:15:13;;;;;;;;;2.33;2.33;;;;;-147.17;100.00;-5745.88;5072870;28;51140;-68
2023/05/05 01:17:44;;;;;;;;;2.33;1.67;;;;;-147.17;100.00;-5994.25;5054180;28;51211;-69
2023/05/05 01:20:31;;;;;;;;;2.33;1.67;;;;;-147.17;100.00;-6739.25;5060963;28;51025;-68
2023/05/05 01:23:04;;;;;;;;;3.00;3.00;;;;;-147.17;100.00;-6987.56;5071154;28;50982;-69
2023/05/05 01:25:48;;;;;;;;;2.67;2.00;;;;;-147.17;100.00;-7732.34;5073038;28;51173;-69
2023/05/05 01:28:41;;;;;;;;;4.33;4.00;;;;;-147.17;100.00;-8477.03;5071970;28;51071;-69
2023/05/05 01:31:34;;;;;;;;;4.67;4.00;;;;;-147.17;100.00;-8725.22;5050828;28;52820;-69
2023/05/05 01:34:04;;;;;;;;;2.67;2.33;;;;;-147.17;100.00;-8973.38;5069658;28;50976;-69
2023/05/05 01:36:35;;;;;;;;;4.67;3.67;;;;;-147.17;100.00;-8973.38;5073278;28;50932;-69
2023/05/05 01:39:02;;;;;;;;;3.00;3.00;;;;;-147.17;100.00;-9469.69;5065501;27;51173;-69
2023/05/05 01:41:32;;;;;;;;;4.00;3.00;;;;;-147.17;100.00;-9717.81;5049687;28;53791;-70
2023/05/05 01:44:03;;;;;;;;;2.67;2.67;;;;;-147.17;100.00;-10214.00;5064043;28;51076;-69
2023/05/05 01:46:29;;;;;;;;;2.67;2.00;;;;;-147.17;100.00;-10214.00;5072061;28;51010;-69
2023/05/05 01:48:57;;;;;;;;;1.67;1.67;;;;;-147.17;100.00;-10462.09;5069660;28;51356;-69
2023/05/05 01:51:25;;;;;;;;;2.67;2.67;;;;;-147.17;100.00;-10958.19;5058532;28;51985;-69
2023/05/05 01:53:52;;;;;;;;;4.00;3.00;;;;;-147.17;100.00;-11206.22;5068168;28;51051;-69
2023/05/05 01:56:21;;;;;;;;;3.00;3.00;;;;;-147.17;100.00;-11702.25;5054125;27;51031;-69
2023/05/05 01:58:48;;;;;;;;;2.00;2.00;;;;;-147.17;100.00;-11950.22;5072473;28;51142;-69
2023/05/05 02:01:14;;;;;;;;;4.00;3.00;;;;;-147.17;100.00;-12198.19;5072520;28;51172;-69
2023/05/05 02:03:41;;;;;;;;;5.33;3.33;;;;;-147.17;100.00;-12446.13;5054907;28;51095;-69
2023/05/05 02:06:07;;;;;;;;;2.00;2.00;;;;;-147.17;100.00;-12446.13;5068380;28;51273;-69
2023/05/05 02:08:36;;;;;;;;;1.67;1.67;;;;;-147.17;100.00;-12941.97;5069897;27;51209;-69
2023/05/05 02:11:03;;;;;;;;;1.67;1.33;;;;;-147.17;100.00;-13189.88;5054857;28;51063;-70
2023/05/05 02:13:31;;;;;;;;;2.00;2.00;;;;;-147.17;100.00;-13189.88;5046940;28;51186;-69
2023/05/05 02:15:58;;;;;;;;;5.00;5.00;;;;;-147.17;100.00;-13437.75;5036366;28;51150;-69
2023/05/05 02:18:25;;;;;;;;;3.33;2.67;;;;;-147.17;100.00;-13437.75;5053211;28;51431;-69
2023/05/05 02:20:52;;;;;;;;;1.67;1.67;;;;;-147.17;100.00;-13685.63;5063186;28;51881;-69
2023/05/05 02:23:18;;;;;;;;;3.00;3.00;;;;;-147.17;100.00;-13933.50;5050784;28;51228;-69
2023/05/05 02:25:49;;;;;;;;;3.00;3.00;;;;;-147.17;100.00;-13685.63;5055315;28;51216;-69
2023/05/05 02:28:19;;;;;;;;;3.00;2.67;;;;;-147.17;100.00;-14181.31;5070930;28;51014;-69
2023/05/05 02:30:59;;;;;;;;;5.33;4.00;;;;;-147.17;100.00;-14181.31;5069817;28;51244;-69
2023/05/05 02:33:26;;;;;;;;;4.33;3.33;;;;;-147.17;100.00;-14181.31;5059590;28;51140;-69
2023/05/05 02:35:55;;;;;;;;;2.00;2.00;;;;;-147.17;100.00;-14181.31;5054127;28;53590;-69
2023/05/05 02:38:28;;;;;;;;;2.00;2.00;;;;;-147.17;100.00;-14429.16;5053070;28;51266;-68
2023/05/05 02:40:56;;;;;;;;;2.67;2.00;;;;;-147.17;100.00;-14429.16;5070920;28;51194;-69
2023/05/05 02:43:24;;;;;;;;;2.00;2.00;;;;;-147.17;100.00;-14676.94;5071463;28;51833;-69
2023/05/05 02:45:50;;;;;;;;;4.00;3.00;;;;;-147.17;100.00;-14924.75;5070991;28;51008;-69
2023/05/05 02:48:15;;;;;;;;;3.00;3.00;;;;;-147.17;100.00;-15172.50;5070321;28;51162;-69
2023/05/05 02:50:40;;;;;;;;;5.33;4.00;;;;;-147.17;100.00;-15172.50;5054299;28;51864;-68
2023/05/05 02:53:06;;;;;;;;;5.00;4.00;;;;;-147.17;100.00;-15172.50;5064089;28;51163;-69
2023/05/05 02:56:12;;;;;;;;;3.67;3.67;;;;;-147.17;100.00;-15420.25;5062672;28;51165;-69
2023/05/05 02:58:50;;;;;;;;;3.00;3.00;;;;;-147.17;100.00;-15420.25;5026919;28;51621;-68
2023/05/05 03:01:51;;;;;;;;;2.67;2.67;;;;;-147.17;100.00;-15420.25;5066033;28;52443;-69
2023/05/05 03:04:24;;;;;;;;;2.00;2.00;;;;;-147.17;100.00;-15420.25;5029075;27;51466;-69
2023/05/05 03:06:55;;;;;;;;;1.00;1.00;;;;;-147.17;100.00;-15668.00;5061523;28;51073;-69
2023/05/05 03:09:28;;;;;;;;;3.67;2.33;;;;;-147.17;100.00;-15668.00;5078981;27;51465;-69
2023/05/05 03:12:07;;;;;;;;;1.33;1.33;;;;;-147.17;100.00;-15668.00;5062490;28;51842;-68
2023/05/05 03:14:41;;;;;;;;;5.00;5.00;;;;;-147.17;100.00;-15668.00;5052593;28;50982;-69
2023/05/05 03:17:11;;;;;;;;;4.00;4.00;;;;;-147.17;100.00;-15915.72;5068389;28;51322;-69
2023/05/05 03:19:40;;;;;;;;;2.67;2.00;;;;;-147.17;100.00;-15915.72;5059830;28;51321;-69
2023/05/05 03:22:06;;;;;;;;;4.00;3.00;;;;;-147.17;100.00;-15915.72;5054372;28;52141;-69
2023/05/05 03:24:31;;;;;;;;;3.00;3.00;;;;;-147.17;100.00;-15917.19;5034242;28;50919;-68
2023/05/05 03:26:56;;;;;;;;;2.00;1.33;;;;;-147.17;100.00;-15917.19;5052469;28;51228;-68
2023/05/05 03:29:22;;;;;;;;;2.67;2.67;;;;;-147.17;100.00;-15917.19;5068601;28;51316;-69
2023/05/05 03:31:47;;;;;;;;;4.00;4.00;;;;;-147.17;100.00;-15917.19;5068515;28;51889;-68
2023/05/05 03:34:13;;;;;;;;;4.00;3.00;;;;;-147.17;100.00;-15917.19;5070528;28;51044;-69
2023/05/05 03:36:39;;;;;;;;;2.00;2.00;;;;;-147.17;100.00;-15917.19;5059803;28;51058;-68
2023/05/05 03:39:04;;;;;;;;;2.67;2.00;;;;;-147.17;100.00;-15917.19;5069047;28;50974;-68
2023/05/05 03:41:29;;;;;;;;;3.00;3.00;;;;;-147.17;100.00;-15917.19;5070309;28;51196;-68
2023/05/05 03:43:55;;;;;;;;;4.67;3.00;;;;;-147.17;100.00;-15917.19;5054121;28;51412;-68
2023/05/05 03:46:20;;;;;;;;;2.00;2.00;;;;;-147.17;100.00;-15917.19;5070959;28;51006;-68
2023/05/05 03:48:47;;;;;;;;;4.00;3.00;;;;;-147.17;100.00;-15917.19;5072050;28;51226;-68
2023/05/05 03:51:12;;;;;;;;;2.50;2.00;;;;;-147.17;100.00;-15917.19;5051331;28;52834;-68
2023/05/05 03:53:38;;;;;;;;;4.00;3.00;;;;;-147.17;100.00;-15917.19;5069542;28;51076;-68
2023/05/05 03:56:03;;;;;;;;;3.00;3.00;;;;;-147.17;100.00;-15917.19;5035356;28;51014;-68
2023/05/05 03:58:29;;;;;;;;;3.00;3.00;;;;;-147.17;100.00;-15917.19;5063569;28;51127;-68
2023/05/05 04:00:55;;;;;;;;;2.00;2.00;;;;;-147.17;100.00;-15917.19;5060167;28;52247;-69
2023/05/05 04:03:20;;;;;;;;;3.67;3.00;;;;;-147.17;100.00;-15917.19;5065189;28;51148;-68
2023/05/05 04:05:45;;;;;;;;;4.00;3.33;;;;;-147.17;100.00;-15917.19;5057982;28;56428;-69
2023/05/05 04:08:11;;;;;;;;;3.00;3.00;;;;;-147.17;100.00;-15917.19;5081138;27;51342;-68
2023/05/05 04:10:36;;;;;;;;;3.00;2.33;;;;;-147.17;100.00;-15917.19;5054466;27;51184;-69
2023/05/05 04:13:01;;;;;;;;;3.00;2.33;;;;;-147.17;100.00;-15917.19;5059740;28;50982;-68
2023/05/05 04:15:27;;;;;;;;;5.00;4.00;;;;;-147.17;100.00;-15917.19;5072478;28;51176;-68
2023/05/05 04:17:52;;;;;;;;;3.00;1.00;;;;;-147.17;100.00;-15917.19;5075273;28;50967;-68
2023/05/05 04:20:18;;;;;;;;;3.33;3.33;;;;;-147.17;100.00;-15917.19;5073351;28;51014;-68
2023/05/05 04:22:43;;;;;;;;;3.00;3.00;;;;;-147.17;100.00;-15917.19;5068750;28;51037;-68
2023/05/05 04:25:09;;;;;;;;;4.00;4.00;;;;;-147.17;100.00;-15917.19;5050054;28;51098;-68
2023/05/05 04:27:34;;;;;;;;;3.00;3.00;;;;;-147.17;100.00;-15917.19;5052031;28;51112;-68
2023/05/05 04:29:59;;;;;;;;;4.00;3.00;;;;;-147.17;100.00;-15917.19;5060064;28;51668;-70
2023/05/05 04:32:25;;;;;;;;;3.00;3.00;;;;;-147.17;100.00;-15917.19;5072005;28;51077;-69
2023/05/05 04:34:51;;;;;;;;;5.00;4.00;;;;;-147.17;100.00;-15917.19;5071374;28;51250;-69
2023/05/05 04:37:16;;;;;;;;;5.00;5.00;;;;;-147.17;100.00;-15917.19;5054345;28;51450;-68
2023/05/05 04:39:42;;;;;;;;;4.00;3.00;;;;;-147.17;100.00;-15917.19;5059817;28;51309;-68
2023/05/05 04:42:07;;;;;;;;;3.67;3.67;;;;;-147.17;100.00;-15917.19;5053880;28;59683;-68
2023/05/05 04:44:33;;;;;;;;;3.00;3.00;;;;;-147.17;100.00;-15917.19;5069025;28;51905;-68
2023/05/05 04:46:59;;;;;;;;;6.00;5.00;;;;;-147.17;100.00;-15917.19;5074089;28;51088;-69
2023/05/05 04:49:25;;;;;;;;;2.33;2.00;;;;;-147.17;100.00;-15917.19;5073151;28;50988;-68
2023/05/05 04:51:50;;;;;;;;;13.75;13.50;;;;;-147.17;100.00;-15917.19;5073365;28;50990;-68
2023/05/05 04:54:16;;;;;;;;;3.00;3.00;;;;;-147.17;100.00;-15917.19;5073373;28;51118;-69
2023/05/05 04:56:41;;;;;;;;;5.33;4.33;;;;;-147.17;100.00;-15917.19;5074798;28;51093;-68
2023/05/05 04:59:06;;;;;;;;;4.67;3.00;;;;;-147.17;100.00;-15917.19;5068373;27;65525;-69
2023/05/05 05:01:31;;;;;;;;;3.67;3.67;;;;;-147.17;100.00;-15917.19;5070319;28;51397;-68
2023/05/05 05:03:57;;;;;;;;;4.67;4.33;;;;;-147.17;100.00;-15917.19;5069842;27;51062;-68
2023/05/05 05:06:22;;;;;;;;;2.33;2.33;;;;;-147.17;100.00;-15917.19;5062617;28;51276;-68
2023/05/05 05:08:47;;;;;;;;;4.00;2.67;;;;;-147.17;100.00;-15917.19;5070861;28;51590;-68
2023/05/05 05:11:13;;;;;;;;;3.00;3.00;;;;;-147.17;100.00;-15917.19;5065424;28;51278;-68
2023/05/05 05:13:38;;;;;;;;;4.00;4.00;;;;;-147.17;100.00;-15917.19;5070397;27;50966;-69
2023/05/05 05:16:05;;;;;;;;;2.67;2.67;;;;;-147.17;100.00;-15917.19;5071469;28;51267;-69
2023/05/05 05:18:30;;;;;;;;;5.00;4.00;;;;;-147.17;100.00;-15917.19;5072381;28;50954;-68
2023/05/05 05:20:55;;;;;;;;;4.00;4.00;;;;;-147.17;100.00;-15917.19;5044685;28;51164;-68
2023/05/05 05:23:21;;;;;;;;;4.00;4.00;;;;;-147.17;100.00;-15917.19;5074241;28;51224;-68
2023/05/05 05:25:46;;;;;;;;;6.33;4.67;;;;;-147.17;100.00;-15917.19;5072027;28;51036;-68
2023/05/05 05:28:12;;;;;;;;;3.67;3.67;;;;;-147.17;100.00;-15917.19;5054566;28;51799;-68
2023/05/05 05:30:37;;;;;;;;;6.00;5.33;;;;;-147.17;100.00;-15917.19;5067458;27;51217;-68
2023/05/05 05:33:02;;;;;;;;;7.00;6.00;;;;;-147.17;100.00;-15917.19;5063434;28;51055;-69
2023/05/05 05:35:28;;;;;;;;;5.00;5.00;;;;;-147.17;100.00;-15917.19;5069143;28;51212;-68
2023/05/05 05:37:53;;;;;;;;;5.67;5.00;;;;;-147.17;100.00;-15917.19;5051336;28;53817;-68
2023/05/05 05:40:18;;;;;;;;;5.00;4.33;;;;;-147.17;100.00;-15917.19;5070066;28;51483;-69
2023/05/05 05:42:44;;;;;;;;;5.00;4.67;;;;;-147.17;100.00;-15917.19;5065414;28;51784;-68
2023/05/05 05:45:09;;;;;;;;;4.00;3.00;;;;;-147.17;100.00;-15917.19;5064757;28;52817;-68
2023/05/05 05:47:35;;;;;;;;;6.00;5.00;;;;;-147.17;100.00;-15917.19;5068213;28;51785;-68
2023/05/05 05:50:00;;;;;;;;;4.00;4.00;;;;;-147.17;100.00;-15917.19;5066023;28;51109;-68
2023/05/05 05:52:26;;;;;;;;;5.33;3.00;;;;;-147.17;100.00;-15917.19;5072522;28;51145;-69
2023/05/05 05:54:51;;;;;;;;;3.33;3.33;;;;;-147.17;100.00;-15917.19;5051885;28;51074;-69
2023/05/05 05:57:17;;;;;;;;;4.00;4.00;;;;;-147.17;100.00;-15917.19;5062801;28;52550;-69
2023/05/05 05:59:43;;;;;;;;;8.00;7.67;;;;;-147.17;100.00;-15917.19;5066111;28;51131;-68
2023/05/05 06:02:08;;;;;;;;;4.00;4.00;;;;;-147.17;100.00;-15917.19;5067052;28;51096;-68
2023/05/05 06:04:34;;;;;;;;;4.00;4.00;;;;;-147.17;100.00;-15917.19;5065402;28;53239;-68
2023/05/05 06:06:59;;;;;;;;;23.75;22.25;;;;;-147.17;100.00;-15917.19;5068769;28;51749;-68
2023/05/05 06:09:24;;;;;;;;;5.00;5.00;;;;;-147.17;100.00;-15917.19;5072798;27;51187;-68
2023/05/05 06:11:50;;;;;;;;;4.00;4.00;;;;;-147.17;100.00;-15917.19;5071655;28;51574;-68
2023/05/05 06:14:15;;;;;;;;;4.00;4.00;;;;;-147.17;100.00;-15917.19;5064894;28;51311;-68
2023/05/05 06:16:41;;;;;;;;;4.67;3.67;;;;;-147.17;100.00;-15917.19;5051827;28;52700;-69
2023/05/05 06:19:08;;;;;;;;;5.33;5.00;;;;;-147.17;100.00;-15917.19;5065214;28;51029;-68
2023/05/05 06:21:34;;;;;;;;;4.00;3.33;;;;;-147.17;100.00;-15917.19;5067111;28;51244;-68
2023/05/05 06:23:59;;;;;;;;;4.67;4.00;;;;;-147.17;100.00;-15917.19;5065368;28;51390;-69
2023/05/05 06:26:25;;;;;;;;;4.00;4.00;;;;;-147.17;100.00;-15917.19;5068370;28;51741;-68
2023/05/05 06:28:50;;;;;;;;;6.67;5.67;;;;;-147.17;100.00;-15917.19;5062499;28;51571;-68
2023/05/05 06:31:16;;;;;;;;;5.00;3.33;;;;;-147.17;100.00;-15917.19;5067539;28;51482;-68
2023/05/05 06:33:41;;;;;;;;;7.33;5.00;;;;;-147.17;100.00;-15917.19;5062562;28;51077;-69
2023/05/05 06:36:07;;;;;;;;;6.00;4.00;;;;;-147.17;100.00;-15917.19;5051397;28;51905;-69
2023/05/05 06:38:32;;;;;;;;;6.00;5.00;;;;;-147.17;100.00;-15917.19;5064930;28;50931;-68
2023/05/05 06:40:58;;;;;;;;;4.00;4.00;;;;;-147.17;100.00;-15917.19;5066332;28;51026;-69
2023/05/05 06:43:23;;;;;;;;;4.00;4.00;;;;;-147.17;100.00;-15917.19;5073435;28;50837;-69
2023/05/05 06:45:48;;;;;;;;;7.33;5.33;;;;;-147.17;100.00;-15917.19;5068832;27;51223;-69
2023/05/05 06:48:14;;;;;;;;;5.67;5.00;;;;;-147.17;100.00;-15917.19;5054167;28;51079;-69
2023/05/05 06:50:39;;;;;;;;;2.00;2.00;;;;;-147.17;100.00;-15917.19;5063686;28;51122;-65
2023/05/05 06:53:05;;;;;;;;;3.00;3.00;;;;;-147.17;100.00;-15917.19;5064849;28;50928;-61
2023/05/05 06:55:30;;;;;;;;;3.67;3.00;;;;;-147.17;100.00;-15917.19;5048751;28;56196;-60
2023/05/05 06:57:55;;;;;;;;;4.00;3.00;;;;;-147.17;100.00;-15917.19;5060252;28;51176;-56
2023/05/05 07:00:21;;;;;;;;;4.00;3.00;;;;;-147.17;100.00;-15917.19;5070684;28;51713;-58
2023/05/05 07:02:47;;;;;;;;;4.67;4.67;;;;;-147.17;100.00;-15917.19;5071454;28;51265;-62
2023/05/05 07:05:12;;;;;;;;;5.00;4.67;;;;;-147.17;100.00;-15917.19;5064688;28;51756;-61
2023/05/05 07:07:48;;;;;;;;;15.00;13.50;;;;;-147.17;100.00;-15917.19;5070221;28;51904;-65
2023/05/05 07:10:13;;;;;;;;;6.00;6.00;;;;;-147.17;100.00;-15917.19;5057954;27;51318;-66
2023/05/05 07:12:39;;;;;;;;;6.33;6.00;;;;;-147.17;100.00;-15917.19;5065484;28;52102;-65
2023/05/05 07:15:05;;;;;;;;;3.00;2.00;;;;;-147.17;100.00;-15917.19;5060196;27;67616;-75
2023/05/05 07:17:30;;;;;;;;;4.00;4.00;;;;;-147.17;100.00;-15917.19;5063706;28;55123;-74
2023/05/05 07:19:55;;;;;;;;;3.67;3.00;;;;;-147.17;100.00;-15917.19;5063526;27;58887;-72
2023/05/05 07:22:21;;;;;;;;;4.67;2.67;;;;;-147.17;100.00;-15917.19;5063527;28;51346;-70
2023/05/05 07:24:46;;;;;;;;;3.33;3.00;;;;;-147.17;100.00;-15917.19;5060449;28;51940;-73
2023/05/05 07:27:11;;;;;;;;;13.00;12.50;;;;;-147.17;100.00;-15917.19;5051770;28;51066;-72
2023/05/05 07:29:37;;;;;;;;;4.33;4.33;;;;;-147.17;100.00;-15917.19;5069721;28;51406;-72
2023/05/05 07:32:02;;;;;;;;;5.67;5.67;;;;;-147.17;100.00;-15917.19;5063022;28;52870;-72
2023/05/05 07:34:27;;;;;;;;;4.33;3.67;;;;;-147.17;100.00;-15917.19;5050880;28;51851;-71
2023/05/05 07:36:55;;;;;;;;;5.00;4.67;;;;;-147.17;100.00;-15917.19;5064436;28;51168;-71
2023/05/05 07:39:20;;;;;;;;;4.33;4.33;;;;;-147.17;100.00;-15917.19;5057574;28;51265;-69
2023/05/05 07:41:45;;;;;;;;;4.00;3.00;;;;;-147.17;100.00;-15917.19;5067632;28;51370;-67
2023/05/05 07:44:11;;;;;;;;;3.00;3.00;;;;;-147.17;100.00;-15917.19;5063807;28;51902;-69
2023/05/05 07:46:36;;;;;;;;;4.00;4.00;;;;;-147.17;100.00;-15917.19;5070050;28;52942;-68
2023/05/05 07:49:01;;;;;;;;;3.00;2.00;;;;;-147.17;100.00;-15917.19;5065211;28;51378;-69
2023/05/05 07:51:26;;;;;;;;;4.00;3.67;;;;;-147.17;100.00;-15917.19;5049269;28;51539;-68
2023/05/05 07:53:52;;;;;;;;;3.00;3.00;;;;;-147.17;100.00;-15917.19;5067266;28;51853;-68
2023/05/05 07:56:17;;;;;;;;;3.33;2.67;;;;;-147.17;100.00;-15917.19;5050997;28;51238;-68
2023/05/05 07:58:42;;;;;;;;;5.33;5.00;;;;;-147.17;100.00;-15917.19;5065988;27;51155;-69
2023/05/05 08:01:09;;;;;;;;;5.67;5.67;;;;;-147.17;100.00;-15917.19;5065308;27;51310;-68
2023/05/05 08:03:35;;;;;;;;;3.67;3.67;;;;;-147.17;100.00;-15917.19;5068638;27;51922;-68
2023/05/05 08:06:07;;;;;;;;;4.33;4.00;;;;;-147.17;100.00;-15917.19;5067280;27;52399;-69
2023/05/05 08:08:32;;;;;;;;;4.00;4.00;;;;;-147.17;100.00;-15917.19;5061603;28;51608;-67
2023/05/05 08:10:58;;;;;;;;;4.00;3.00;;;;;-147.17;100.00;-15917.19;5072863;28;51289;-67
2023/05/05 08:13:23;;;;;;;;;3.67;3.00;;;;;-147.17;100.00;-15917.19;5051819;28;53166;-67
2023/05/05 08:15:48;;;;;;;;;4.00;4.00;;;;;-147.17;100.00;-15917.19;5063004;28;51154;-68
2023/05/05 08:18:14;;;;;;;;;5.00;5.00;;;;;-147.17;100.00;-15917.19;5067885;28;51150;-68
2023/05/05 08:20:39;;;;;;;;;1.33;1.33;;;;;-147.17;100.00;-15917.19;5059494;28;51248;-68
2023/05/05 08:23:05;;;;;;;;;5.00;4.00;;;;;-147.17;100.00;-15917.19;5064324;28;51049;-67
2023/05/05 08:25:31;;;;;;;;;5.33;4.00;;;;;-147.17;100.00;-15917.19;5055704;28;50954;-67
2023/05/05 08:27:56;;;;;;;;;6.33;5.33;;;;;-147.17;100.00;-15917.19;5055516;28;51298;-68
2023/05/05 08:30:22;;;;;;;;;6.00;5.00;;;;;-147.17;100.00;-15917.19;5046079;28;51026;-68
2023/05/05 08:32:47;;;;;;;;;6.00;5.00;;;;;-147.17;100.00;-15917.19;5055082;28;51113;-67
2023/05/05 08:35:12;;;;;;;;;5.00;4.33;;;;;-147.17;100.00;-15917.19;5069884;28;51188;-68
2023/05/05 08:37:38;;;;;;;;;4.67;4.00;;;;;-147.17;100.00;-15917.19;5073370;28;51263;-67
2023/05/05 08:40:04;;;;;;;;;7.67;5.00;;;;;-147.17;100.00;-15917.19;5067889;27;51305;-67
2023/05/05 08:42:30;;;;;;;;;6.00;6.00;;;;;-147.17;100.00;-15917.19;5067762;28;51809;-67
2023/05/05 08:44:55;;;;;;;;;6.00;4.00;;;;;-147.17;100.00;-15917.19;5061315;28;51291;-67
2023/05/05 08:47:21;;;;;;;;;5.00;5.00;;;;;-147.17;100.00;-15917.19;5071999;28;51422;-67
2023/05/05 08:49:46;;;;;;;;;4.00;4.00;;;;;-147.17;100.00;-15917.19;5065489;28;51171;-67
2023/05/05 08:52:17;;;;;;;;;4.33;4.33;;;;;-147.17;100.00;-15917.19;5055434;28;52076;-66
2023/05/05 08:54:53;;;;;;;;;2.33;2.33;;;;;-147.17;100.00;-15917.19;5066489;28;50978;-67
2023/05/05 08:57:37;;;;;;;;;7.00;7.00;;;;;-147.17;100.00;-15917.19;5052215;28;51010;-67
2023/05/05 09:00:03;;;;;;;;;2.67;2.67;;;;;-147.17;100.00;-15917.19;5051195;28;51122;-67
2023/05/05 09:02:29;;;;;;;;;3.33;2.67;;;;;-147.17;100.00;-15917.19;5070870;28;52894;-68
2023/05/05 09:04:55;;;;;;;;;3.33;2.33;;;;;-147.17;100.00;-15917.19;5061811;28;51023;-67
2023/05/05 09:07:20;;;;;;;;;3.67;3.00;;;;;-147.17;100.00;-15668.00;5054493;28;51089;-67
2023/05/05 09:09:46;;;;;;;;;2.00;2.00;;;;;-147.17;100.00;-13437.75;5069758;28;51354;-67
2023/05/05 09:12:11;;;;;;;;;1.00;1.00;;;;;-147.17;100.00;-12446.13;5067511;28;52528;-68
2023/05/05 09:14:37;;;;;;;;;1.67;1.67;;;;;-147.17;100.00;-13933.50;5065633;28;52616;-69
2023/05/05 09:17:02;;;;;;;;;1.67;1.67;;;;;-147.17;100.00;-12941.97;5071448;27;51203;-69
2023/05/05 09:19:27;;;;;;;;;2.00;2.00;;;;;-147.17;100.00;-11702.25;5085180;27;51168;-69
2023/05/05 09:21:53;;;;;;;;;3.00;3.00;;;;;-147.17;100.00;-10958.19;5057667;28;52091;-68
2023/05/05 09:24:19;;;;;;;;;4.00;2.00;;;;;-147.17;100.00;-7980.59;5060448;28;52999;-68
2023/05/05 09:26:46;;;;;;;;;1.00;1.00;;;;;-147.17;100.00;-4752.25;5065029;28;51247;-67
2023/05/05 09:29:21;;;;;;;;;2.00;1.33;;;;;-147.17;100.00;-2515.66;5065870;28;50950;-68
2023/05/05 09:32:07;;;;;;;;;2.00;2.00;;;;;-147.17;100.00;-1023.88;5063662;28;53527;-69
2023/05/05 09:34:34;;;;;;;;;2.00;1.67;;;;;-147.17;100.00;-3012.78;5058145;28;50986;-69
2023/05/05 09:36:59;;;;;;;;;4.00;2.00;;;;;-147.17;100.00;4450.97;5053038;28;51018;-69
2023/05/05 09:39:25;;;;;;;;;3.00;2.00;;;;;-147.17;100.00;4450.97;5064384;28;50931;-68
2023/05/05 09:41:50;;;;;;;;;2.67;2.67;;;;;-147.17;100.00;4700.00;5056110;28;52635;-68
2023/05/05 09:44:15;;;;;;;;;2.00;2.00;;;;;-147.17;100.00;7191.28;5060531;28;51181;-68
2023/05/05 09:46:51;;;;;;;;;1.67;1.00;;;;;-147.17;100.00;14924.50;5056727;28;51211;-68
2023/05/05 09:49:22;;;;;;;;;2.00;2.00;;;;;-147.17;100.00;11929.16;5060883;27;51602;-67
2023/05/05 09:51:47;;;;;;;;;2.67;2.67;;;;;-147.17;100.00;11679.66;5043002;28;52989;-67
2023/05/05 09:54:29;;;;;;;;;3.00;3.00;;;;;-147.17;100.00;18671.91;5062537;28;51238;-68
2023/05/05 09:56:56;;;;;;;;;1.00;1.00;;;;;-147.17;100.00;20922.09;5066597;28;51077;-68
2023/05/05 09:59:23;;;;;;;;;3.00;3.00;;;;;-147.17;100.00;27893.78;5055874;27;51736;-67
2023/05/05 10:01:49;;;;;;;;;1.00;1.00;;;;;-147.17;100.00;30529.25;5055367;28;51785;-67
2023/05/05 10:04:30;;;;;;;;;3.00;2.67;;;;;-147.17;100.00;28878.47;5051722;28;51071;-68
2023/05/05 10:06:57;;;;;;;;;5.67;5.00;;;;;-147.17;100.00;27085.50;5050034;28;51212;-67
2023/05/05 10:09:23;;;;;;;;;3.33;3.00;;;;;-147.17;100.00;29741.97;5053985;28;51325;-68
2023/05/05 10:11:49;;;;;;;;;3.00;3.00;;;;;-147.17;100.00;28862.78;5051580;28;51829;-68
2023/05/05 10:14:19;;;;;;;;;5.67;5.00;;;;;-147.17;100.00;28265.72;5053008;28;51085;-69
2023/05/05 10:16:52;;;;;;;;;2.00;2.00;;;;;-147.17;100.00;27273.38;5064638;28;51070;-68
2023/05/05 10:19:19;;;;;;;;;1.00;1.00;;;;;-147.17;100.00;31052.25;5052127;28;51344;-68
2023/05/05 10:21:48;;;;;;;;;2.00;1.33;;;;;-147.17;100.00;31702.69;5072475;28;51218;-68
2023/05/05 10:24:29;;;;;;;;;1.00;1.00;;;;;-147.17;100.00;33930.97;5067848;28;51082;-68
2023/05/05 10:26:57;;;;;;;;;2.33;2.00;;;;;-147.17;100.00;35640.78;5043020;28;50993;-69
2023/05/05 10:29:44;;;;;;;;;3.00;2.00;;;;;-147.17;100.00;35397.59;5070655;28;51036;-68
2023/05/05 10:32:47;;;;;;;;;2.00;2.00;;;;;-147.17;100.00;36290.00;5052480;28;52763;-68
2023/05/05 10:35:19;;;;;;;;;2.00;2.00;;;;;-147.17;100.00;36670.56;5065602;28;51054;-67
2023/05/05 10:37:46;;;;;;;;;11.33;10.67;;;;;-147.17;100.00;35695.69;5064930;28;51022;-69
2023/05/05 10:40:12;;;;;;;;;3.00;3.00;;;;;-147.17;100.00;34262.28;5058094;28;51329;-69
2023/05/05 10:42:41;;;;;;;;;2.00;2.00;;;;;-147.17;100.00;34464.22;5051026;28;51692;-68
2023/05/05 10:45:07;;;;;;;;;0.67;0.67;;;;;-147.17;100.00;35083.84;5033353;28;51157;-68
2023/05/05 10:47:34;;;;;;;;;3.67;3.67;;;;;-147.17;100.00;34670.09;5064631;28;51383;-69
2023/05/05 10:50:10;;;;;;;;;3.00;2.00;;;;;-147.17;100.00;36156.63;5071617;28;51161;-68
2023/05/05 10:53:15;;;;;;;;;2.00;1.00;;;;;-147.17;100.00;38228.47;5071173;28;52673;-67
2023/05/05 10:55:52;;;;;;;;;4.00;3.67;;;;;-147.17;100.00;38935.06;5055671;27;51710;-68
2023/05/05 10:58:39;;;;;;;;;2.00;2.00;;;;;-147.17;100.00;37653.50;5057226;28;51475;-68
2023/05/05 11:01:05;;;;;;;;;3.00;3.00;;;;;-147.17;100.00;38358.00;5056972;28;51321;-68
2023/05/05 11:03:30;;;;;;;;;1.00;1.00;;;;;-147.17;100.00;38369.78;5056587;27;51272;-69
2023/05/05 11:06:06;;;;;;;;;1.33;1.33;;;;;-147.17;100.00;38827.09;5057112;28;51148;-68
2023/05/05 11:08:36;;;;;;;;;4.67;3.67;;;;;-147.17;100.00;39732.06;5055749;27;51204;-68